sensor_id;sensor_type;location;lat;lon;timestamp;P1;durP1;ratioP1;P2;durP2;ratioP2
48526;SDS011;34317;51.660;5.824;2024-01-27T00:00:34;21.48;;;4.00;;
48526;SDS011;34317;51.660;5.824;2024-01-27T00:03:01;17.95;;;3.83;;
48526;SDS011;34317;51.660;5.824;2024-01-27T00:05:29;15.13;;;3.67;;
48526;SDS011;34317;51.660;5.824;2024-01-27T00:07:57;21.33;;;4.40;;
48526;SDS011;34317;51.660;5.824;2024-01-27T00:10:25;13.27;;;3.30;;
48526;SDS011;34317;51.660;5.824;2024-01-27T00:12:52;17.02;;;3.80;;
48526;SDS011;34317;51.660;5.824;2024-01-27T00:15:20;16.30;;;3.67;;
48526;SDS011;34317;51.660;5.824;2024-01-27T00:17:47;14.63;;;3.67;;
48526;SDS011;34317;51.660;5.824;2024-01-27T00:20:15;12.70;;;3.25;;
48526;SDS011;34317;51.660;5.824;2024-01-27T00:22:42;13.50;;;3.97;;
48526;SDS011;34317;51.660;5.824;2024-01-27T00:25:09;19.90;;;4.20;;
48526;SDS011;34317;51.660;5.824;2024-01-27T00:27:36;19.17;;;4.45;;
48526;SDS011;34317;51.660;5.824;2024-01-27T00:30:04;16.20;;;4.00;;
48526;SDS011;34317;51.660;5.824;2024-01-27T00:32:32;16.58;;;4.10;;
48526;SDS011;34317;51.660;5.824;2024-01-27T00:35:02;18.15;;;4.32;;
48526;SDS011;34317;51.660;5.824;2024-01-27T00:37:29;17.85;;;4.05;;
48526;SDS011;34317;51.660;5.824;2024-01-27T00:39:57;15.43;;;4.10;;
48526;SDS011;34317;51.660;5.824;2024-01-27T00:42:24;16.20;;;4.32;;
48526;SDS011;34317;51.660;5.824;2024-01-27T00:44:52;17.73;;;4.05;;
48526;SDS011;34317;51.660;5.824;2024-01-27T00:47:19;22.38;;;4.32;;
48526;SDS011;34317;51.660;5.824;2024-01-27T00:49:46;11.05;;;3.95;;
48526;SDS011;34317;51.660;5.824;2024-01-27T00:52:14;12.95;;;3.95;;
48526;SDS011;34317;51.660;5.824;2024-01-27T00:54:41;17.17;;;4.45;;
48526;SDS011;34317;51.660;5.824;2024-01-27T00:57:08;15.35;;;3.70;;
48526;SDS011;34317;51.660;5.824;2024-01-27T00:59:35;16.98;;;4.55;;
48526;SDS011;34317;51.660;5.824;2024-01-27T01:02:03;15.85;;;3.95;;
48526;SDS011;34317;51.660;5.824;2024-01-27T01:04:30;16.88;;;4.35;;
48526;SDS011;34317;51.660;5.824;2024-01-27T01:06:57;16.10;;;4.47;;
48526;SDS011;34317;51.660;5.824;2024-01-27T01:09:25;18.20;;;4.93;;
48526;SDS011;34317;51.660;5.824;2024-01-27T01:11:52;14.65;;;4.88;;
48526;SDS011;34317;51.660;5.824;2024-01-27T01:14:20;12.30;;;4.15;;
48526;SDS011;34317;51.660;5.824;2024-01-27T01:16:47;15.05;;;4.28;;
48526;SDS011;34317;51.660;5.824;2024-01-27T01:19:15;15.88;;;4.30;;
48526;SDS011;34317;51.660;5.824;2024-01-27T01:21:42;20.42;;;4.95;;
48526;SDS011;34317;51.660;5.824;2024-01-27T01:24:10;15.98;;;4.72;;
48526;SDS011;34317;51.660;5.824;2024-01-27T01:26:37;15.52;;;4.72;;
48526;SDS011;34317;51.660;5.824;2024-01-27T01:29:04;13.38;;;4.35;;
48526;SDS011;34317;51.660;5.824;2024-01-27T01:31:31;18.95;;;4.88;;
48526;SDS011;34317;51.660;5.824;2024-01-27T01:33:59;15.35;;;5.07;;
48526;SDS011;34317;51.660;5.824;2024-01-27T01:36:26;17.35;;;4.88;;
48526;SDS011;34317;51.660;5.824;2024-01-27T01:38:53;15.75;;;4.22;;
48526;SDS011;34317;51.660;5.824;2024-01-27T01:41:21;16.80;;;4.22;;
48526;SDS011;34317;51.660;5.824;2024-01-27T01:43:48;12.75;;;4.30;;
48526;SDS011;34317;51.660;5.824;2024-01-27T01:46:15;16.80;;;4.53;;
48526;SDS011;34317;51.660;5.824;2024-01-27T01:48:43;16.48;;;5.22;;
48526;SDS011;34317;51.660;5.824;2024-01-27T01:51:10;14.20;;;4.53;;
48526;SDS011;34317;51.660;5.824;2024-01-27T01:53:38;17.23;;;4.68;;
48526;SDS011;34317;51.660;5.824;2024-01-27T01:56:06;15.80;;;5.10;;
48526;SDS011;34317;51.660;5.824;2024-01-27T01:58:35;15.52;;;5.15;;
48526;SDS011;34317;51.660;5.824;2024-01-27T02:01:02;12.93;;;5.15;;
48526;SDS011;34317;51.660;5.824;2024-01-27T02:03:30;15.18;;;4.90;;
48526;SDS011;34317;51.660;5.824;2024-01-27T02:05:57;23.55;;;5.32;;
48526;SDS011;34317;51.660;5.824;2024-01-27T02:08:25;15.35;;;5.05;;
48526;SDS011;34317;51.660;5.824;2024-01-27T02:10:52;13.98;;;5.28;;
48526;SDS011;34317;51.660;5.824;2024-01-27T02:13:22;15.13;;;5.38;;
48526;SDS011;34317;51.660;5.824;2024-01-27T02:15:50;14.60;;;5.20;;
48526;SDS011;34317;51.660;5.824;2024-01-27T02:18:17;15.65;;;5.35;;
48526;SDS011;34317;51.660;5.824;2024-01-27T02:20:45;14.52;;;5.55;;
48526;SDS011;34317;51.660;5.824;2024-01-27T02:23:13;19.25;;;5.22;;
48526;SDS011;34317;51.660;5.824;2024-01-27T02:25:40;16.20;;;4.70;;
48526;SDS011;34317;51.660;5.824;2024-01-27T02:28:07;15.77;;;5.25;;
48526;SDS011;34317;51.660;5.824;2024-01-27T02:30:34;18.52;;;6.10;;
48526;SDS011;34317;51.660;5.824;2024-01-27T02:33:02;15.35;;;5.40;;
48526;SDS011;34317;51.660;5.824;2024-01-27T02:35:29;22.63;;;5.13;;
48526;SDS011;34317;51.660;5.824;2024-01-27T02:37:57;19.52;;;5.78;;
48526;SDS011;34317;51.660;5.824;2024-01-27T02:40:24;19.95;;;5.63;;
48526;SDS011;34317;51.660;5.824;2024-01-27T02:42:51;22.63;;;5.05;;
48526;SDS011;34317;51.660;5.824;2024-01-27T02:45:19;18.48;;;5.75;;
48526;SDS011;34317;51.660;5.824;2024-01-27T02:47:46;18.15;;;6.32;;
48526;SDS011;34317;51.660;5.824;2024-01-27T02:50:15;17.33;;;5.50;;
48526;SDS011;34317;51.660;5.824;2024-01-27T02:52:42;17.80;;;5.03;;
48526;SDS011;34317;51.660;5.824;2024-01-27T02:55:10;13.95;;;5.20;;
48526;SDS011;34317;51.660;5.824;2024-01-27T02:57:37;18.83;;;5.70;;
48526;SDS011;34317;51.660;5.824;2024-01-27T03:00:08;18.92;;;5.75;;
48526;SDS011;34317;51.660;5.824;2024-01-27T03:02:36;14.27;;;5.70;;
48526;SDS011;34317;51.660;5.824;2024-01-27T03:05:03;24.85;;;5.95;;
48526;SDS011;34317;51.660;5.824;2024-01-27T03:07:31;22.50;;;5.60;;
48526;SDS011;34317;51.660;5.824;2024-01-27T03:09:58;18.95;;;6.38;;
48526;SDS011;34317;51.660;5.824;2024-01-27T03:12:25;14.68;;;5.53;;
48526;SDS011;34317;51.660;5.824;2024-01-27T03:14:52;19.70;;;5.70;;
48526;SDS011;34317;51.660;5.824;2024-01-27T03:17:20;22.83;;;6.43;;
48526;SDS011;34317;51.660;5.824;2024-01-27T03:19:47;13.00;;;5.93;;
48526;SDS011;34317;51.660;5.824;2024-01-27T03:22:15;22.75;;;6.13;;
48526;SDS011;34317;51.660;5.824;2024-01-27T03:24:43;15.70;;;5.72;;
48526;SDS011;34317;51.660;5.824;2024-01-27T03:27:10;17.00;;;5.97;;
48526;SDS011;34317;51.660;5.824;2024-01-27T03:29:37;15.85;;;5.97;;
48526;SDS011;34317;51.660;5.824;2024-01-27T03:32:04;20.02;;;5.68;;
48526;SDS011;34317;51.660;5.824;2024-01-27T03:34:32;15.70;;;6.05;;
48526;SDS011;34317;51.660;5.824;2024-01-27T03:37:00;18.48;;;5.47;;
48526;SDS011;34317;51.660;5.824;2024-01-27T03:39:27;18.98;;;6.10;;
48526;SDS011;34317;51.660;5.824;2024-01-27T03:41:54;17.38;;;6.05;;
48526;SDS011;34317;51.660;5.824;2024-01-27T03:44:21;12.90;;;5.75;;
48526;SDS011;34317;51.660;5.824;2024-01-27T03:46:48;16.40;;;6.28;;
48526;SDS011;34317;51.660;5.824;2024-01-27T03:49:16;26.33;;;6.45;;
48526;SDS011;34317;51.660;5.824;2024-01-27T03:51:43;19.20;;;5.88;;
48526;SDS011;34317;51.660;5.824;2024-01-27T03:54:10;20.35;;;6.60;;
48526;SDS011;34317;51.660;5.824;2024-01-27T03:56:37;16.83;;;5.85;;
48526;SDS011;34317;51.660;5.824;2024-01-27T03:59:07;19.45;;;6.10;;
48526;SDS011;34317;51.660;5.824;2024-01-27T04:01:36;17.90;;;6.10;;
48526;SDS011;34317;51.660;5.824;2024-01-27T04:04:03;13.75;;;6.20;;
48526;SDS011;34317;51.660;5.824;2024-01-27T04:06:35;18.35;;;6.10;;
48526;SDS011;34317;51.660;5.824;2024-01-27T04:09:04;15.18;;;5.70;;
48526;SDS011;34317;51.660;5.824;2024-01-27T04:11:36;18.60;;;6.30;;
48526;SDS011;34317;51.660;5.824;2024-01-27T04:14:04;17.25;;;6.15;;
48526;SDS011;34317;51.660;5.824;2024-01-27T04:16:32;18.30;;;5.95;;
48526;SDS011;34317;51.660;5.824;2024-01-27T04:18:59;19.42;;;6.60;;
48526;SDS011;34317;51.660;5.824;2024-01-27T04:21:27;14.55;;;6.20;;
48526;SDS011;34317;51.660;5.824;2024-01-27T04:23:54;18.13;;;6.18;;
48526;SDS011;34317;51.660;5.824;2024-01-27T04:26:21;17.92;;;6.82;;
48526;SDS011;34317;51.660;5.824;2024-01-27T04:28:48;21.77;;;6.68;;
48526;SDS011;34317;51.660;5.824;2024-01-27T04:31:16;21.80;;;6.78;;
48526;SDS011;34317;51.660;5.824;2024-01-27T04:33:43;18.98;;;7.05;;
48526;SDS011;34317;51.660;5.824;2024-01-27T04:36:10;20.45;;;6.95;;
48526;SDS011;34317;51.660;5.824;2024-01-27T04:38:37;13.75;;;6.03;;
48526;SDS011;34317;51.660;5.824;2024-01-27T04:41:05;18.90;;;6.30;;
48526;SDS011;34317;51.660;5.824;2024-01-27T04:43:32;17.13;;;6.70;;
48526;SDS011;34317;51.660;5.824;2024-01-27T04:45:59;16.13;;;6.57;;
48526;SDS011;34317;51.660;5.824;2024-01-27T04:48:26;20.02;;;7.10;;
48526;SDS011;34317;51.660;5.824;2024-01-27T04:50:53;22.02;;;6.35;;
48526;SDS011;34317;51.660;5.824;2024-01-27T04:53:21;13.98;;;6.22;;
48526;SDS011;34317;51.660;5.824;2024-01-27T04:55:48;23.45;;;6.40;;
48526;SDS011;34317;51.660;5.824;2024-01-27T04:58:15;15.88;;;6.03;;
48526;SDS011;34317;51.660;5.824;2024-01-27T05:00:42;19.58;;;7.03;;
48526;SDS011;34317;51.660;5.824;2024-01-27T05:03:10;12.88;;;5.93;;
48526;SDS011;34317;51.660;5.824;2024-01-27T05:05:41;21.27;;;6.70;;
48526;SDS011;34317;51.660;5.824;2024-01-27T05:08:09;20.88;;;7.35;;
48526;SDS011;34317;51.660;5.824;2024-01-27T05:10:36;20.60;;;6.18;;
48526;SDS011;34317;51.660;5.824;2024-01-27T05:13:03;15.95;;;6.30;;
48526;SDS011;34317;51.660;5.824;2024-01-27T05:15:31;11.93;;;4.03;;
48526;SDS011;34317;51.660;5.824;2024-01-27T05:17:58;9.38;;;4.25;;
48526;SDS011;34317;51.660;5.824;2024-01-27T05:20:26;12.05;;;4.63;;
48526;SDS011;34317;51.660;5.824;2024-01-27T05:22:53;10.80;;;4.00;;
48526;SDS011;34317;51.660;5.824;2024-01-27T05:25:20;12.60;;;4.43;;
48526;SDS011;34317;51.660;5.824;2024-01-27T05:27:47;12.85;;;4.40;;
48526;SDS011;34317;51.660;5.824;2024-01-27T05:30:15;15.95;;;4.95;;
48526;SDS011;34317;51.660;5.824;2024-01-27T05:32:42;13.48;;;4.97;;
48526;SDS011;34317;51.660;5.824;2024-01-27T05:35:10;8.48;;;3.88;;
48526;SDS011;34317;51.660;5.824;2024-01-27T05:37:37;7.82;;;4.15;;
48526;SDS011;34317;51.660;5.824;2024-01-27T05:40:07;12.50;;;4.28;;
48526;SDS011;34317;51.660;5.824;2024-01-27T05:42:35;11.45;;;4.05;;
48526;SDS011;34317;51.660;5.824;2024-01-27T05:45:02;18.27;;;4.80;;
48526;SDS011;34317;51.660;5.824;2024-01-27T05:47:31;10.65;;;4.45;;
48526;SDS011;34317;51.660;5.824;2024-01-27T05:49:58;15.73;;;4.28;;
48526;SDS011;34317;51.660;5.824;2024-01-27T05:52:26;14.70;;;4.80;;
48526;SDS011;34317;51.660;5.824;2024-01-27T05:54:53;9.05;;;4.13;;
48526;SDS011;34317;51.660;5.824;2024-01-27T05:57:21;11.75;;;4.43;;
48526;SDS011;34317;51.660;5.824;2024-01-27T05:59:48;10.85;;;3.67;;
48526;SDS011;34317;51.660;5.824;2024-01-27T06:02:15;10.43;;;4.15;;
48526;SDS011;34317;51.660;5.824;2024-01-27T06:04:45;10.70;;;4.20;;
48526;SDS011;34317;51.660;5.824;2024-01-27T06:07:12;11.68;;;4.03;;
48526;SDS011;34317;51.660;5.824;2024-01-27T06:09:40;11.05;;;4.03;;
48526;SDS011;34317;51.660;5.824;2024-01-27T06:12:07;13.98;;;4.65;;
48526;SDS011;34317;51.660;5.824;2024-01-27T06:14:35;9.73;;;4.15;;
48526;SDS011;34317;51.660;5.824;2024-01-27T06:17:04;11.88;;;4.22;;
48526;SDS011;34317;51.660;5.824;2024-01-27T06:19:32;10.82;;;4.22;;
48526;SDS011;34317;51.660;5.824;2024-01-27T06:21:59;8.38;;;4.43;;
48526;SDS011;34317;51.660;5.824;2024-01-27T06:24:32;9.90;;;4.20;;
48526;SDS011;34317;51.660;5.824;2024-01-27T06:26:59;13.38;;;4.88;;
48526;SDS011;34317;51.660;5.824;2024-01-27T06:29:26;17.35;;;4.40;;
48526;SDS011;34317;51.660;5.824;2024-01-27T06:31:54;17.25;;;4.97;;
48526;SDS011;34317;51.660;5.824;2024-01-27T06:34:21;14.55;;;4.72;;
48526;SDS011;34317;51.660;5.824;2024-01-27T06:36:48;9.73;;;3.95;;
48526;SDS011;34317;51.660;5.824;2024-01-27T06:39:15;13.27;;;4.25;;
48526;SDS011;34317;51.660;5.824;2024-01-27T06:41:43;12.32;;;4.20;;
48526;SDS011;34317;51.660;5.824;2024-01-27T06:44:10;10.65;;;4.38;;
48526;SDS011;34317;51.660;5.824;2024-01-27T06:46:37;14.20;;;4.97;;
48526;SDS011;34317;51.660;5.824;2024-01-27T06:49:04;11.90;;;4.80;;
48526;SDS011;34317;51.660;5.824;2024-01-27T06:51:32;11.60;;;5.20;;
48526;SDS011;34317;51.660;5.824;2024-01-27T06:53:59;13.43;;;5.05;;
48526;SDS011;34317;51.660;5.824;2024-01-27T06:56:26;11.50;;;4.78;;
48526;SDS011;34317;51.660;5.824;2024-01-27T06:58:53;11.13;;;4.82;;
48526;SDS011;34317;51.660;5.824;2024-01-27T07:01:20;13.70;;;5.22;;
48526;SDS011;34317;51.660;5.824;2024-01-27T07:03:48;14.07;;;5.18;;
48526;SDS011;34317;51.660;5.824;2024-01-27T07:06:15;14.57;;;5.32;;
48526;SDS011;34317;51.660;5.824;2024-01-27T07:08:42;11.40;;;5.15;;
48526;SDS011;34317;51.660;5.824;2024-01-27T07:11:10;8.52;;;4.38;;
48526;SDS011;34317;51.660;5.824;2024-01-27T07:13:37;15.55;;;5.10;;
48526;SDS011;34317;51.660;5.824;2024-01-27T07:16:04;15.13;;;4.95;;
48526;SDS011;34317;51.660;5.824;2024-01-27T07:18:32;12.95;;;5.22;;
48526;SDS011;34317;51.660;5.824;2024-01-27T07:21:02;10.27;;;4.65;;
48526;SDS011;34317;51.660;5.824;2024-01-27T07:23:33;15.23;;;4.82;;
48526;SDS011;34317;51.660;5.824;2024-01-27T07:26:02;13.10;;;4.38;;
48526;SDS011;34317;51.660;5.824;2024-01-27T07:28:30;15.07;;;4.97;;
48526;SDS011;34317;51.660;5.824;2024-01-27T07:30:58;11.25;;;4.65;;
48526;SDS011;34317;51.660;5.824;2024-01-27T07:33:25;13.48;;;4.97;;
48526;SDS011;34317;51.660;5.824;2024-01-27T07:35:53;10.80;;;4.32;;
48526;SDS011;34317;51.660;5.824;2024-01-27T07:38:20;9.95;;;4.63;;
48526;SDS011;34317;51.660;5.824;2024-01-27T07:40:47;16.95;;;5.07;;
48526;SDS011;34317;51.660;5.824;2024-01-27T07:43:14;13.38;;;4.45;;
48526;SDS011;34317;51.660;5.824;2024-01-27T07:45:42;13.43;;;4.75;;
48526;SDS011;34317;51.660;5.824;2024-01-27T07:48:09;13.18;;;4.60;;
48526;SDS011;34317;51.660;5.824;2024-01-27T07:50:36;12.98;;;4.82;;
48526;SDS011;34317;51.660;5.824;2024-01-27T07:53:03;14.88;;;4.93;;
48526;SDS011;34317;51.660;5.824;2024-01-27T07:55:30;12.63;;;5.07;;
48526;SDS011;34317;51.660;5.824;2024-01-27T07:57:58;13.60;;;5.32;;
48526;SDS011;34317;51.660;5.824;2024-01-27T08:00:25;12.20;;;4.68;;
48526;SDS011;34317;51.660;5.824;2024-01-27T08:02:52;14.45;;;4.90;;
48526;SDS011;34317;51.660;5.824;2024-01-27T08:05:20;11.57;;;4.55;;
48526;SDS011;34317;51.660;5.824;2024-01-27T08:07:48;13.40;;;4.70;;
48526;SDS011;34317;51.660;5.824;2024-01-27T08:10:15;14.02;;;4.78;;
48526;SDS011;34317;51.660;5.824;2024-01-27T08:12:43;18.50;;;5.07;;
48526;SDS011;34317;51.660;5.824;2024-01-27T08:15:11;12.00;;;4.47;;
48526;SDS011;34317;51.660;5.824;2024-01-27T08:17:38;10.23;;;5.30;;
48526;SDS011;34317;51.660;5.824;2024-01-27T08:20:05;14.65;;;4.25;;
48526;SDS011;34317;51.660;5.824;2024-01-27T08:22:33;15.68;;;5.00;;
48526;SDS011;34317;51.660;5.824;2024-01-27T08:25:01;12.75;;;4.55;;
48526;SDS011;34317;51.660;5.824;2024-01-27T08:27:28;14.30;;;5.35;;
48526;SDS011;34317;51.660;5.824;2024-01-27T08:29:55;11.57;;;4.60;;
48526;SDS011;34317;51.660;5.824;2024-01-27T08:32:24;10.20;;;4.85;;
48526;SDS011;34317;51.660;5.824;2024-01-27T08:34:51;12.23;;;4.70;;
48526;SDS011;34317;51.660;5.824;2024-01-27T08:37:19;11.82;;;4.63;;
48526;SDS011;34317;51.660;5.824;2024-01-27T08:39:47;10.57;;;4.97;;
48526;SDS011;34317;51.660;5.824;2024-01-27T08:42:14;10.07;;;4.78;;
48526;SDS011;34317;51.660;5.824;2024-01-27T08:44:42;14.00;;;5.25;;
48526;SDS011;34317;51.660;5.824;2024-01-27T08:47:09;11.77;;;4.85;;
48526;SDS011;34317;51.660;5.824;2024-01-27T08:49:36;12.00;;;5.20;;
48526;SDS011;34317;51.660;5.824;2024-01-27T08:52:04;11.52;;;5.07;;
48526;SDS011;34317;51.660;5.824;2024-01-27T08:54:31;13.68;;;4.72;;
48526;SDS011;34317;51.660;5.824;2024-01-27T08:56:58;13.77;;;4.95;;
48526;SDS011;34317;51.660;5.824;2024-01-27T08:59:25;13.63;;;4.65;;
48526;SDS011;34317;51.660;5.824;2024-01-27T09:01:52;11.27;;;4.93;;
48526;SDS011;34317;51.660;5.824;2024-01-27T09:04:19;13.13;;;5.40;;
48526;SDS011;34317;51.660;5.824;2024-01-27T09:06:47;13.10;;;4.85;;
48526;SDS011;34317;51.660;5.824;2024-01-27T09:09:14;14.82;;;4.43;;
48526;SDS011;34317;51.660;5.824;2024-01-27T09:11:42;8.90;;;4.78;;
48526;SDS011;34317;51.660;5.824;2024-01-27T09:14:09;10.80;;;4.70;;
48526;SDS011;34317;51.660;5.824;2024-01-27T09:16:36;16.80;;;5.25;;
48526;SDS011;34317;51.660;5.824;2024-01-27T09:19:04;13.48;;;5.10;;
48526;SDS011;34317;51.660;5.824;2024-01-27T09:21:31;17.50;;;4.97;;
48526;SDS011;34317;51.660;5.824;2024-01-27T09:24:00;15.00;;;5.35;;
48526;SDS011;34317;51.660;5.824;2024-01-27T09:26:29;17.02;;;5.63;;
48526;SDS011;34317;51.660;5.824;2024-01-27T09:28:56;10.35;;;4.65;;
48526;SDS011;34317;51.660;5.824;2024-01-27T09:31:24;17.48;;;5.03;;
48526;SDS011;34317;51.660;5.824;2024-01-27T09:33:52;13.23;;;4.88;;
48526;SDS011;34317;51.660;5.824;2024-01-27T09:36:21;13.93;;;4.85;;
48526;SDS011;34317;51.660;5.824;2024-01-27T09:38:49;18.50;;;4.70;;
48526;SDS011;34317;51.660;5.824;2024-01-27T09:41:17;18.42;;;5.43;;
48526;SDS011;34317;51.660;5.824;2024-01-27T09:43:45;13.05;;;5.30;;
48526;SDS011;34317;51.660;5.824;2024-01-27T09:46:16;14.75;;;5.30;;
48526;SDS011;34317;51.660;5.824;2024-01-27T09:48:44;14.93;;;5.45;;
48526;SDS011;34317;51.660;5.824;2024-01-27T09:51:12;13.13;;;5.28;;
48526;SDS011;34317;51.660;5.824;2024-01-27T09:53:40;12.73;;;5.10;;
48526;SDS011;34317;51.660;5.824;2024-01-27T09:56:07;15.32;;;5.35;;
48526;SDS011;34317;51.660;5.824;2024-01-27T09:58:35;16.65;;;6.10;;
48526;SDS011;34317;51.660;5.824;2024-01-27T10:01:03;15.75;;;5.90;;
48526;SDS011;34317;51.660;5.824;2024-01-27T10:03:31;12.88;;;5.60;;
48526;SDS011;34317;51.660;5.824;2024-01-27T10:06:01;14.27;;;5.13;;
48526;SDS011;34317;51.660;5.824;2024-01-27T10:08:29;13.32;;;5.57;;
48526;SDS011;34317;51.660;5.824;2024-01-27T10:10:57;19.92;;;5.80;;
48526;SDS011;34317;51.660;5.824;2024-01-27T10:13:24;15.80;;;5.15;;
48526;SDS011;34317;51.660;5.824;2024-01-27T10:18:29;9.70;;;3.80;;
48526;SDS011;34317;51.660;5.824;2024-01-27T10:20:57;9.80;;;3.88;;
48526;SDS011;34317;51.660;5.824;2024-01-27T10:23:25;12.23;;;4.50;;
48526;SDS011;34317;51.660;5.824;2024-01-27T10:25:53;13.50;;;4.10;;
48526;SDS011;34317;51.660;5.824;2024-01-27T10:28:24;14.75;;;4.65;;
48526;SDS011;34317;51.660;5.824;2024-01-27T10:30:51;12.00;;;4.45;;
48526;SDS011;34317;51.660;5.824;2024-01-27T10:33:18;13.35;;;4.20;;
48526;SDS011;34317;51.660;5.824;2024-01-27T10:35:45;12.43;;;4.53;;
48526;SDS011;34317;51.660;5.824;2024-01-27T10:38:12;12.88;;;4.35;;
48526;SDS011;34317;51.660;5.824;2024-01-27T10:40:40;11.60;;;4.10;;
48526;SDS011;34317;51.660;5.824;2024-01-27T10:43:07;13.40;;;4.50;;
48526;SDS011;34317;51.660;5.824;2024-01-27T10:48:04;17.33;;;4.65;;
48526;SDS011;34317;51.660;5.824;2024-01-27T10:50:34;12.63;;;4.47;;
48526;SDS011;34317;51.660;5.824;2024-01-27T10:53:09;20.00;;;4.53;;
48526;SDS011;34317;51.660;5.824;2024-01-27T10:55:42;13.07;;;4.85;;
48526;SDS011;34317;51.660;5.824;2024-01-27T10:58:11;13.05;;;4.43;;
48526;SDS011;34317;51.660;5.824;2024-01-27T11:00:39;9.25;;;4.07;;
48526;SDS011;34317;51.660;5.824;2024-01-27T11:03:10;11.52;;;3.72;;
48526;SDS011;34317;51.660;5.824;2024-01-27T11:05:38;10.07;;;3.95;;
48526;SDS011;34317;51.660;5.824;2024-01-27T11:08:07;11.73;;;4.00;;
48526;SDS011;34317;51.660;5.824;2024-01-27T11:10:35;11.48;;;3.83;;
48526;SDS011;34317;51.660;5.824;2024-01-27T11:13:05;10.27;;;4.25;;
48526;SDS011;34317;51.660;5.824;2024-01-27T11:15:33;10.07;;;4.20;;
48526;SDS011;34317;51.660;5.824;2024-01-27T11:18:00;12.75;;;4.10;;
48526;SDS011;34317;51.660;5.824;2024-01-27T11:20:31;11.82;;;4.03;;
48526;SDS011;34317;51.660;5.824;2024-01-27T11:23:14;16.90;;;4.55;;
48526;SDS011;34317;51.660;5.824;2024-01-27T11:25:41;13.35;;;4.18;;
48526;SDS011;34317;51.660;5.824;2024-01-27T11:28:13;9.82;;;3.67;;
48526;SDS011;34317;51.660;5.824;2024-01-27T11:30:46;7.60;;;3.75;;
48526;SDS011;34317;51.660;5.824;2024-01-27T11:33:14;10.32;;;3.92;;
48526;SDS011;34317;51.660;5.824;2024-01-27T11:35:42;9.57;;;4.35;;
48526;SDS011;34317;51.660;5.824;2024-01-27T11:38:09;8.57;;;3.72;;
48526;SDS011;34317;51.660;5.824;2024-01-27T11:40:55;14.57;;;3.90;;
48526;SDS011;34317;51.660;5.824;2024-01-27T11:43:22;13.15;;;3.42;;
48526;SDS011;34317;51.660;5.824;2024-01-27T11:45:59;10.60;;;3.55;;
48526;SDS011;34317;51.660;5.824;2024-01-27T11:48:27;10.00;;;4.00;;
48526;SDS011;34317;51.660;5.824;2024-01-27T11:51:08;13.68;;;4.18;;
48526;SDS011;34317;51.660;5.824;2024-01-27T11:53:38;13.35;;;4.22;;
48526;SDS011;34317;51.660;5.824;2024-01-27T11:56:06;16.73;;;4.18;;
48526;SDS011;34317;51.660;5.824;2024-01-27T11:58:34;9.07;;;3.38;;
48526;SDS011;34317;51.660;5.824;2024-01-27T12:01:01;10.20;;;3.25;;
48526;SDS011;34317;51.660;5.824;2024-01-27T12:03:29;11.13;;;3.70;;
48526;SDS011;34317;51.660;5.824;2024-01-27T12:05:56;14.80;;;4.25;;
48526;SDS011;34317;51.660;5.824;2024-01-27T12:08:24;12.52;;;3.80;;
48526;SDS011;34317;51.660;5.824;2024-01-27T12:10:51;10.20;;;3.58;;
48526;SDS011;34317;51.660;5.824;2024-01-27T12:13:18;14.18;;;4.10;;
48526;SDS011;34317;51.660;5.824;2024-01-27T12:15:46;13.13;;;3.65;;
48526;SDS011;34317;51.660;5.824;2024-01-27T12:18:14;12.07;;;4.15;;
48526;SDS011;34317;51.660;5.824;2024-01-27T12:20:47;13.15;;;3.65;;
48526;SDS011;34317;51.660;5.824;2024-01-27T12:23:15;13.77;;;4.32;;
48526;SDS011;34317;51.660;5.824;2024-01-27T12:25:42;13.50;;;6.00;;
48526;SDS011;34317;51.660;5.824;2024-01-27T12:28:09;22.80;;;7.57;;
48526;SDS011;34317;51.660;5.824;2024-01-27T12:30:38;11.40;;;3.55;;
48526;SDS011;34317;51.660;5.824;2024-01-27T12:33:11;31.95;;;11.60;;
48526;SDS011;34317;51.660;5.824;2024-01-27T12:35:39;10.83;;;3.90;;
48526;SDS011;34317;51.660;5.824;2024-01-27T12:38:07;13.77;;;3.80;;
48526;SDS011;34317;51.660;5.824;2024-01-27T12:40:34;18.05;;;3.53;;
48526;SDS011;34317;51.660;5.824;2024-01-27T12:43:01;12.95;;;3.10;;
48526;SDS011;34317;51.660;5.824;2024-01-27T12:45:28;8.57;;;2.97;;
48526;SDS011;34317;51.660;5.824;2024-01-27T12:47:57;12.23;;;3.08;;
48526;SDS011;34317;51.660;5.824;2024-01-27T12:50:26;8.15;;;2.65;;
48526;SDS011;34317;51.660;5.824;2024-01-27T12:52:53;14.77;;;4.38;;
48526;SDS011;34317;51.660;5.824;2024-01-27T12:55:21;7.30;;;2.85;;
48526;SDS011;34317;51.660;5.824;2024-01-27T12:57:48;12.05;;;3.08;;
48526;SDS011;34317;51.660;5.824;2024-01-27T13:00:16;8.65;;;3.50;;
48526;SDS011;34317;51.660;5.824;2024-01-27T13:02:44;17.98;;;5.38;;
48526;SDS011;34317;51.660;5.824;2024-01-27T13:05:11;10.50;;;2.50;;
48526;SDS011;34317;51.660;5.824;2024-01-27T13:07:38;12.25;;;4.38;;
48526;SDS011;34317;51.660;5.824;2024-01-27T13:10:06;8.55;;;2.63;;
48526;SDS011;34317;51.660;5.824;2024-01-27T13:12:33;5.55;;;2.10;;
48526;SDS011;34317;51.660;5.824;2024-01-27T13:15:02;13.43;;;4.88;;
48526;SDS011;34317;51.660;5.824;2024-01-27T13:17:29;8.35;;;1.90;;
48526;SDS011;34317;51.660;5.824;2024-01-27T13:19:56;5.28;;;1.52;;
48526;SDS011;34317;51.660;5.824;2024-01-27T13:22:24;8.52;;;2.00;;
48526;SDS011;34317;51.660;5.824;2024-01-27T13:24:52;5.60;;;1.50;;
48526;SDS011;34317;51.660;5.824;2024-01-27T13:27:19;11.57;;;1.67;;
48526;SDS011;34317;51.660;5.824;2024-01-27T13:29:46;5.53;;;1.52;;
48526;SDS011;34317;51.660;5.824;2024-01-27T13:32:14;6.68;;;1.98;;
48526;SDS011;34317;51.660;5.824;2024-01-27T13:34:41;6.03;;;1.73;;
48526;SDS011;34317;51.660;5.824;2024-01-27T13:37:08;6.88;;;1.85;;
48526;SDS011;34317;51.660;5.824;2024-01-27T13:39:37;9.82;;;1.52;;
48526;SDS011;34317;51.660;5.824;2024-01-27T13:42:05;9.57;;;2.30;;
48526;SDS011;34317;51.660;5.824;2024-01-27T13:44:33;6.18;;;1.45;;
48526;SDS011;34317;51.660;5.824;2024-01-27T13:47:04;7.72;;;1.48;;
48526;SDS011;34317;51.660;5.824;2024-01-27T13:49:31;5.10;;;1.75;;
48526;SDS011;34317;51.660;5.824;2024-01-27T13:52:00;11.00;;;2.25;;
48526;SDS011;34317;51.660;5.824;2024-01-27T13:54:31;9.18;;;1.60;;
48526;SDS011;34317;51.660;5.824;2024-01-27T13:57:02;5.00;;;1.80;;
48526;SDS011;34317;51.660;5.824;2024-01-27T13:59:29;4.82;;;1.63;;
48526;SDS011;34317;51.660;5.824;2024-01-27T14:01:57;7.03;;;1.83;;
48526;SDS011;34317;51.660;5.824;2024-01-27T14:04:25;5.80;;;1.42;;
48526;SDS011;34317;51.660;5.824;2024-01-27T14:06:52;7.20;;;1.38;;
48526;SDS011;34317;51.660;5.824;2024-01-27T14:09:30;12.85;;;3.40;;
48526;SDS011;34317;51.660;5.824;2024-01-27T14:11:57;5.20;;;1.90;;
48526;SDS011;34317;51.660;5.824;2024-01-27T14:14:24;7.80;;;2.20;;
48526;SDS011;34317;51.660;5.824;2024-01-27T14:16:51;5.47;;;1.50;;
48526;SDS011;34317;51.660;5.824;2024-01-27T14:19:18;4.50;;;1.60;;
48526;SDS011;34317;51.660;5.824;2024-01-27T14:21:46;7.32;;;1.95;;
48526;SDS011;34317;51.660;5.824;2024-01-27T14:24:13;9.15;;;1.73;;
48526;SDS011;34317;51.660;5.824;2024-01-27T14:26:40;6.95;;;1.80;;
48526;SDS011;34317;51.660;5.824;2024-01-27T14:29:07;6.60;;;1.63;;
48526;SDS011;34317;51.660;5.824;2024-01-27T14:31:34;7.03;;;1.50;;
48526;SDS011;34317;51.660;5.824;2024-01-27T14:34:02;6.32;;;1.50;;
48526;SDS011;34317;51.660;5.824;2024-01-27T14:36:29;6.07;;;1.60;;
48526;SDS011;34317;51.660;5.824;2024-01-27T14:38:57;5.65;;;1.70;;
48526;SDS011;34317;51.660;5.824;2024-01-27T14:41:25;7.38;;;1.67;;
48526;SDS011;34317;51.660;5.824;2024-01-27T14:43:52;9.82;;;3.67;;